Hansen, Nebraska
Current Conditions -  °F | °C
As of 10:53 PM on Wednesday 26 Nov 2014 (Local Time) from KHSI Reporting Station
Clear Clear  
Wind Chill: -12°   Ceiling: Unl
Heat Index: -7°   Visibility: 10mi
Dew Point: -11°   Wind: 7mph
Humidity: 77%   Direction: 360°N
Pressure: 30.42"   Gusts: NA
Location:  40.5551°N, 98.369°W
Report Text: KHSI 270453Z AUTO 36006KT 10SM CLR M07/M11 A3042 RMK AO2 SLP329 T10721106
Loading
Personal Weather Stations






























Interactive Weather Map New forecast layout! Learn more

10-Day Weather Forecast

Advertisements
Track Severe Weather on mobile